Time;durP1;ratioP1;P1;durP2;ratioP2;P2;SDS_P1;SDS_P2;PMS_P1;PMS_P2;Temp;Humidity;BMP_temperature;BMP_pressure;BME280_temperature;BME280_humidity;BME280_pressure;Samples;Min_cycle;Max_cycle;Signal;HPM_P1;HPM_P2
2022/10/08 00:01:15;;;;;;;15.43;10.48;;;;;;;18.12;54.88;100542.59;5369160;26;33230;-82
2022/10/08 00:03:46;;;;;;;14.30;9.68;;;;;;;17.75;55.80;100552.06;5389108;26;32892;-82
2022/10/08 00:06:24;;;;;;;16.35;10.55;;;;;;;17.38;56.60;100545.75;5389142;26;33132;-83
2022/10/08 00:09:00;;;;;;;16.15;11.50;;;;;;;18.08;54.70;100553.88;5389198;26;33955;-81
2022/10/08 00:11:31;;;;;;;22.48;12.52;;;;;;;16.85;58.29;100547.66;5389697;26;34127;-80
2022/10/08 00:14:00;;;;;;;16.95;12.15;;;;;;;16.05;61.32;100552.84;5389215;26;34728;-80
2022/10/08 00:16:36;;;;;;;19.95;12.07;;;;;;;16.01;61.44;100550.97;5387110;26;33687;-82
2022/10/08 00:19:06;;;;;;;16.52;11.77;;;;;;;14.61;66.09;100549.19;5389112;26;33454;-82
2022/10/08 00:21:36;;;;;;;19.98;12.55;;;;;;;14.93;65.99;100544.34;5389628;26;32667;-82
2022/10/08 00:24:06;;;;;;;19.27;12.23;;;;;;;16.16;61.74;100538.41;5390122;26;34106;-79
2022/10/08 00:26:34;;;;;;;18.55;12.13;;;;;;;14.71;66.05;100540.91;5389570;26;34570;-80
2022/10/08 00:29:12;;;;;;;19.08;12.10;;;;;;;14.09;68.24;100544.41;5388136;26;34161;-80
2022/10/08 00:31:42;;;;;;;16.77;12.48;;;;;;;13.24;72.50;100537.16;5368009;26;31872;-80
2022/10/08 00:34:12;;;;;;;20.83;12.10;;;;;;;13.52;72.00;100539.31;5389556;26;34461;-81
2022/10/08 00:36:40;;;;;;;22.65;13.57;;;;;;;13.78;71.18;100527.47;5390231;26;33875;-82
2022/10/08 00:39:12;;;;;;;21.52;11.73;;;;;;;15.24;66.33;100532.47;5370405;26;33631;-82
2022/10/08 00:41:42;;;;;;;17.40;12.45;;;;;;;16.54;60.92;100520.50;5369622;26;33272;-82
2022/10/08 00:44:54;;;;;;;20.70;11.98;;;;;;;16.10;61.00;100518.19;5370015;26;33066;-80
2022/10/08 00:47:24;;;;;;;18.23;12.45;;;;;;;16.65;59.21;100510.38;5387966;26;34594;-81
2022/10/08 00:49:54;;;;;;;16.70;11.48;;;;;;;17.04;57.74;100512.50;5389517;26;34003;-81
2022/10/08 00:52:24;;;;;;;17.98;11.75;;;;;;;17.72;55.35;100499.56;5369585;26;33736;-80
2022/10/08 00:54:52;;;;;;;19.33;12.80;;;;;;;16.79;57.65;100505.59;5368836;26;34436;-80
2022/10/08 00:57:20;;;;;;;20.85;12.77;;;;;;;15.78;61.12;100503.12;5389417;26;33743;-80
2022/10/08 00:59:47;;;;;;;21.50;12.25;;;;;;;15.80;62.09;100511.91;5369900;26;33770;-82
2022/10/08 01:02:15;;;;;;;18.30;11.45;;;;;;;16.40;60.23;100495.63;5369538;26;33556;-80
2022/10/08 01:04:43;;;;;;;20.40;12.23;;;;;;;16.69;58.79;100500.06;5390126;26;34111;-81
2022/10/08 01:07:25;;;;;;;17.20;10.85;;;;;;;16.91;57.70;100500.75;5389283;26;34088;-80
2022/10/08 01:10:09;;;;;;;20.20;11.98;;;;;;;16.76;58.10;100505.47;5369125;26;33675;-80
2022/10/08 01:12:47;;;;;;;21.15;12.00;;;;;;;15.64;61.47;100507.84;5389919;26;33542;-81
2022/10/08 01:15:31;;;;;;;21.20;12.82;;;;;;;14.96;64.28;100502.75;5369669;26;34063;-80
2022/10/08 01:18:02;;;;;;;17.60;10.93;;;;;;;15.70;61.46;100510.66;5389424;26;33842;-82
2022/10/08 01:20:47;;;;;;;15.43;9.35;;;;;;;16.55;58.31;100490.88;5369372;26;33932;-80
2022/10/08 01:23:20;;;;;;;14.30;8.73;;;;;;;17.37;55.48;100491.63;5370275;26;34065;-80
2022/10/08 01:26:25;;;;;;;10.98;7.32;;;;;;;18.48;51.04;100491.91;5369752;26;33903;-82
2022/10/08 01:28:57;;;;;;;12.73;8.83;;;;;;;18.06;52.16;100492.62;5389562;26;33518;-82
2022/10/08 01:31:34;;;;;;;11.90;8.40;;;;;;;16.61;56.70;100491.09;5369764;26;33903;-81
2022/10/08 01:34:06;;;;;;;15.50;8.85;;;;;;;15.96;58.61;100485.50;5370035;26;34241;-80
2022/10/08 01:36:42;;;;;;;14.90;9.15;;;;;;;15.29;62.31;100486.56;5370218;26;34712;-81
2022/10/08 01:39:13;;;;;;;14.35;10.00;;;;;;;15.56;60.81;100481.44;5370051;26;34070;-81
2022/10/08 01:41:42;;;;;;;17.40;9.23;;;;;;;16.95;56.59;100476.44;5370190;26;33685;-80
2022/10/08 01:44:24;;;;;;;14.18;9.20;;;;;;;16.23;59.29;100475.06;5369739;26;34354;-80
2022/10/08 01:46:58;;;;;;;13.70;9.05;;;;;;;17.08;55.93;100473.34;5389829;26;33859;-82
2022/10/08 01:49:30;;;;;;;11.95;9.02;;;;;;;16.05;58.40;100461.38;5390250;26;34915;-81
2022/10/08 01:52:06;;;;;;;14.15;9.07;;;;;;;17.02;55.86;100457.47;5390304;26;33941;-80
2022/10/08 01:54:36;;;;;;;12.32;8.48;;;;;;;17.56;54.12;100450.22;5370572;26;33474;-83
2022/10/08 01:57:04;;;;;;;13.57;8.57;;;;;;;16.05;58.27;100450.94;5369649;26;33445;-81
2022/10/08 01:59:36;;;;;;;14.25;8.68;;;;;;;15.77;59.63;100454.34;5369658;26;33914;-80
2022/10/08 02:02:21;;;;;;;15.68;9.48;;;;;;;15.96;58.87;100456.75;5369338;26;34703;-82
2022/10/08 02:04:52;;;;;;;15.25;9.68;;;;;;;15.22;61.48;100463.69;5369609;26;33541;-80
2022/10/08 02:07:31;;;;;;;12.80;8.48;;;;;;;15.61;60.73;100459.00;5389460;26;33202;-82
2022/10/08 02:10:06;;;;;;;14.45;9.40;;;;;;;15.88;59.14;100459.09;5369921;26;33966;-81
2022/10/08 02:12:35;;;;;;;19.08;9.52;;;;;;;15.04;62.18;100454.34;5390356;26;33650;-82
2022/10/08 02:15:04;;;;;;;12.77;8.52;;;;;;;16.44;57.50;100445.22;5389857;26;33446;-80
2022/10/08 02:17:56;;;;;;;15.10;10.48;;;;;;;15.24;61.07;100452.50;5368527;26;34773;-81
2022/10/08 02:20:34;;;;;;;16.05;10.25;;;;;;;14.69;63.48;100461.72;5388749;26;33942;-81
2022/10/08 02:23:28;;;;;;;15.65;9.90;;;;;;;14.22;64.38;100452.91;5372990;26;33942;-82
2022/10/08 02:26:31;;;;;;;16.20;10.38;;;;;;;14.65;63.18;100454.63;5369499;26;33515;-80
2022/10/08 02:29:04;;;;;;;18.77;11.68;;;;;;;14.86;62.81;100453.66;5369890;26;33701;-82
2022/10/08 02:31:40;;;;;;;18.55;10.88;;;;;;;14.06;65.07;100448.78;5389495;26;34693;-82
2022/10/08 02:34:15;;;;;;;16.05;10.50;;;;;;;14.77;62.76;100448.09;5368996;26;34241;-82
2022/10/08 02:36:47;;;;;;;16.55;11.40;;;;;;;14.91;62.26;100452.09;5369534;26;33547;-82
2022/10/08 02:39:15;;;;;;;14.32;9.73;;;;;;;15.97;58.71;100444.56;5369759;26;33840;-82
2022/10/08 02:41:47;;;;;;;15.32;10.27;;;;;;;14.72;61.44;100448.81;5369346;26;34334;-82
2022/10/08 02:44:19;;;;;;;15.77;9.88;;;;;;;14.40;63.01;100446.63;5390022;26;34615;-80
2022/10/08 02:46:49;;;;;;;21.40;11.65;;;;;;;14.75;61.90;100441.09;5389251;26;33563;-80
2022/10/08 02:49:23;;;;;;;16.08;10.07;;;;;;;15.07;61.50;100444.03;5369404;26;34707;-80
2022/10/08 02:51:52;;;;;;;16.83;11.37;;;;;;;15.51;60.11;100444.75;5369896;26;34660;-81
2022/10/08 02:54:22;;;;;;;14.80;10.65;;;;;;;15.21;60.34;100441.03;5369840;26;34637;-80
2022/10/08 02:56:55;;;;;;;15.40;11.23;;;;;;;15.23;60.07;100450.69;5389511;26;34210;-82
2022/10/08 02:59:24;;;;;;;14.95;9.75;;;;;;;15.18;60.07;100451.34;5369568;26;33883;-81
2022/10/08 03:02:00;;;;;;;16.15;11.15;;;;;;;14.52;62.13;100441.91;5368981;26;34677;-82
2022/10/08 03:04:31;;;;;;;16.37;10.70;;;;;;;13.48;65.92;100444.63;5389892;26;33893;-81
2022/10/08 03:06:59;;;;;;;18.75;10.52;;;;;;;13.19;67.99;100451.09;5369597;26;34305;-80
2022/10/08 03:09:30;;;;;;;16.02;10.93;;;;;;;13.33;67.31;100449.16;5369550;26;34101;-80
2022/10/08 03:11:59;;;;;;;19.02;11.77;;;;;;;13.40;66.61;100445.97;5369304;26;33834;-81
2022/10/08 03:14:27;;;;;;;17.30;11.00;;;;;;;13.11;67.97;100447.25;5369505;26;33822;-82
2022/10/08 03:16:54;;;;;;;15.93;11.65;;;;;;;12.35;70.83;100442.91;5369067;26;34436;-81
2022/10/08 03:19:22;;;;;;;15.32;10.57;;;;;;;13.63;66.19;100433.06;5368812;26;33858;-81
2022/10/08 03:21:52;;;;;;;17.00;10.60;;;;;;;13.82;65.68;100440.81;5369373;26;34473;-82
2022/10/08 03:24:20;;;;;;;15.15;11.07;;;;;;;14.79;62.07;100439.50;5369145;26;32942;-80
2022/10/08 03:26:47;;;;;;;14.82;10.15;;;;;;;14.97;60.47;100444.53;5369332;26;33737;-81
2022/10/08 03:29:15;;;;;;;16.10;10.00;;;;;;;14.56;61.15;100443.78;5389367;26;34449;-82
2022/10/08 03:31:42;;;;;;;16.27;9.25;;;;;;;14.94;59.79;100439.19;5389580;26;33919;-81
2022/10/08 03:34:10;;;;;;;16.42;10.00;;;;;;;14.96;58.93;100444.47;5389009;26;33891;-80
2022/10/08 03:36:37;;;;;;;19.48;10.00;;;;;;;13.88;63.56;100441.06;5369322;26;33412;-82
2022/10/08 03:39:05;;;;;;;16.85;10.30;;;;;;;14.37;62.16;100442.22;5389164;26;33973;-81
2022/10/08 03:41:32;;;;;;;14.32;9.65;;;;;;;14.61;61.13;100444.91;5388509;26;33589;-81
2022/10/08 03:44:00;;;;;;;17.05;9.93;;;;;;;15.91;56.96;100438.28;5389030;26;33848;-81
2022/10/08 03:46:27;;;;;;;13.98;9.85;;;;;;;15.17;58.57;100444.37;5388656;26;33501;-81
2022/10/08 03:48:55;;;;;;;15.57;10.70;;;;;;;13.00;65.59;100444.19;5369263;26;34036;-80
2022/10/08 03:51:22;;;;;;;17.33;10.73;;;;;;;12.04;70.25;100448.31;5388786;26;34607;-80
2022/10/08 03:53:50;;;;;;;15.50;10.10;;;;;;;11.59;72.27;100454.72;5389995;26;34461;-81
2022/10/08 03:56:23;;;;;;;15.02;10.30;;;;;;;12.69;69.52;100445.38;5389977;26;33578;-80
2022/10/08 03:58:56;;;;;;;16.33;9.70;;;;;;;14.99;60.17;100442.88;5390326;26;34594;-82
2022/10/08 04:01:25;;;;;;;14.52;8.75;;;;;;;16.03;55.99;100429.09;5369496;26;32954;-80
2022/10/08 04:03:53;;;;;;;12.32;7.78;;;;;;;17.05;51.42;100434.00;5389537;26;33651;-82
2022/10/08 04:06:20;;;;;;;15.05;9.32;;;;;;;16.85;51.85;100433.41;5389674;26;34401;-81
2022/10/08 04:08:49;;;;;;;14.15;8.75;;;;;;;15.47;55.42;100428.91;5390572;26;33639;-80
2022/10/08 04:11:18;;;;;;;14.75;8.82;;;;;;;15.21;56.87;100425.38;5389969;26;33621;-81
2022/10/08 04:13:45;;;;;;;12.27;8.70;;;;;;;15.31;56.83;100427.47;5389802;26;34433;-81
2022/10/08 04:16:14;;;;;;;11.73;8.23;;;;;;;15.20;57.43;100420.97;5369832;26;33756;-82
2022/10/08 04:18:42;;;;;;;14.75;9.15;;;;;;;15.24;57.07;100425.47;5389858;26;34003;-81
2022/10/08 04:21:13;;;;;;;16.40;9.13;;;;;;;14.98;57.95;100428.03;5390115;26;34356;-81
2022/10/08 04:23:41;;;;;;;14.05;9.05;;;;;;;14.49;59.61;100427.03;5389982;26;33850;-82
2022/10/08 04:26:10;;;;;;;15.38;8.77;;;;;;;14.72;59.43;100425.34;5389759;26;33266;-81
2022/10/08 04:28:39;;;;;;;14.80;8.88;;;;;;;15.78;56.10;100420.47;5389833;26;34553;-81
2022/10/08 04:31:10;;;;;;;17.42;9.48;;;;;;;16.37;54.36;100411.88;5389039;26;33533;-82
2022/10/08 04:33:38;;;;;;;12.70;8.75;;;;;;;15.36;56.77;100425.94;5390243;26;33620;-82
2022/10/08 04:36:07;;;;;;;16.00;9.30;;;;;;;14.99;57.41;100424.59;5390066;26;33330;-80
2022/10/08 04:38:35;;;;;;;14.52;9.05;;;;;;;14.30;58.74;100420.22;5389870;26;34575;-82
2022/10/08 04:41:08;;;;;;;13.90;8.82;;;;;;;14.67;57.92;100429.50;5389725;26;33978;-81
2022/10/08 04:43:36;;;;;;;14.85;10.00;;;;;;;14.51;58.26;100430.59;5390309;26;34302;-82
2022/10/08 04:46:04;;;;;;;19.33;9.93;;;;;;;14.29;59.03;100427.97;5389789;26;33468;-80
2022/10/08 04:48:32;;;;;;;14.80;10.35;;;;;;;13.57;61.35;100429.38;5370038;26;33578;-80
2022/10/08 04:51:02;;;;;;;14.77;10.18;;;;;;;13.63;62.02;100423.53;5389945;26;33930;-81
2022/10/08 04:53:37;;;;;;;14.57;9.60;;;;;;;13.94;61.29;100425.69;5389862;26;33983;-80
2022/10/08 04:56:13;;;;;;;19.83;10.45;;;;;;;14.35;59.48;100421.28;5389562;26;33790;-82
2022/10/08 04:58:41;;;;;;;19.15;9.82;;;;;;;14.12;59.99;100427.31;5390251;26;34155;-82
2022/10/08 05:01:10;;;;;;;15.10;9.65;;;;;;;14.03;60.32;100429.53;5389799;26;33637;-82
2022/10/08 05:03:40;;;;;;;18.02;11.05;;;;;;;13.52;62.19;100437.81;5389059;26;34079;-82
2022/10/08 05:06:08;;;;;;;13.73;10.52;;;;;;;13.83;61.17;100427.00;5389626;26;34290;-80
2022/10/08 05:08:35;;;;;;;16.67;10.85;;;;;;;13.53;62.46;100439.59;5389341;26;33920;-82
2022/10/08 05:11:03;;;;;;;16.25;10.70;;;;;;;12.79;65.73;100431.09;5390045;26;34533;-82
2022/10/08 05:13:31;;;;;;;14.82;9.80;;;;;;;13.43;63.70;100433.09;5369885;26;34559;-82
2022/10/08 05:16:03;;;;;;;16.27;10.38;;;;;;;15.26;58.05;100434.25;5390031;26;33506;-81
2022/10/08 05:18:32;;;;;;;19.58;10.43;;;;;;;15.34;57.24;100438.03;5389919;26;33798;-82
2022/10/08 05:21:08;;;;;;;17.73;10.10;;;;;;;14.52;59.02;100436.69;5389907;26;34669;-82
2022/10/08 05:23:36;;;;;;;16.40;10.52;;;;;;;12.32;66.63;100430.66;5389840;26;34491;-81
2022/10/08 05:26:21;;;;;;;14.52;9.32;;;;;;;13.62;63.07;100433.87;5386729;26;34166;-78
2022/10/08 05:29:09;;;;;;;17.20;10.85;;;;;;;14.94;58.94;100431.38;5369153;26;33238;-81
2022/10/08 05:31:37;;;;;;;15.13;9.90;;;;;;;16.19;54.77;100431.38;5388962;26;33653;-80
2022/10/08 05:34:05;;;;;;;16.27;11.15;;;;;;;15.48;55.83;100431.56;5388618;26;34762;-81
2022/10/08 05:36:33;;;;;;;15.45;9.88;;;;;;;15.17;57.25;100441.78;5388773;26;34216;-79
2022/10/08 05:39:03;;;;;;;13.93;9.55;;;;;;;15.69;55.76;100430.56;5389406;26;34735;-80
2022/10/08 05:41:32;;;;;;;16.08;10.10;;;;;;;16.51;53.28;100431.47;5369681;26;34549;-83
2022/10/08 05:44:03;;;;;;;13.07;9.38;;;;;;;16.91;52.17;100430.09;5389351;26;34677;-83
2022/10/08 05:46:33;;;;;;;18.80;10.30;;;;;;;17.11;51.42;100441.13;5389249;26;33280;-81
2022/10/08 05:49:03;;;;;;;18.05;10.27;;;;;;;17.04;51.85;100434.84;5389368;26;34710;-80
2022/10/08 05:51:30;;;;;;;16.83;9.00;;;;;;;16.96;52.29;100444.22;5389966;26;34407;-79
2022/10/08 05:53:59;;;;;;;17.48;9.18;;;;;;;17.46;51.03;100442.12;5389038;26;34221;-79
2022/10/08 05:56:27;;;;;;;15.85;9.40;;;;;;;18.27;47.96;100447.69;5389245;26;33184;-82
2022/10/08 05:58:55;;;;;;;15.43;8.98;;;;;;;17.19;50.85;100449.19;5369285;26;34419;-82
2022/10/08 06:01:28;;;;;;;14.43;9.30;;;;;;;16.86;51.84;100456.16;5388248;26;33377;-81
2022/10/08 06:04:01;;;;;;;16.58;9.32;;;;;;;17.59;50.37;100452.94;5389547;26;33995;-78
2022/10/08 06:06:36;;;;;;;17.40;9.60;;;;;;;17.96;49.85;100453.91;5389780;26;33507;-82
2022/10/08 06:09:04;;;;;;;17.35;9.30;;;;;;;18.13;49.73;100456.97;5369393;26;34007;-86
2022/10/08 06:11:34;;;;;;;14.93;9.35;;;;;;;17.77;50.60;100450.81;5385904;26;32866;-85
2022/10/08 06:14:02;;;;;;;15.85;8.75;;;;;;;18.02;50.09;100452.34;5389783;26;33617;-82
2022/10/08 06:16:29;;;;;;;15.88;9.35;;;;;;;18.25;49.75;100455.53;5368932;26;32347;-84
2022/10/08 06:18:57;;;;;;;14.05;9.70;;;;;;;18.40;49.58;100459.34;5388110;26;33704;-85
2022/10/08 06:21:25;;;;;;;15.35;10.63;;;;;;;18.35;50.09;100455.72;5388502;26;34294;-83
2022/10/08 06:24:04;;;;;;;16.58;10.77;;;;;;;17.81;51.77;100457.91;5389375;26;34468;-78
2022/10/08 06:26:34;;;;;;;15.73;10.95;;;;;;;17.03;54.57;100464.47;5389600;26;33530;-81
2022/10/08 06:29:08;;;;;;;18.27;11.88;;;;;;;17.57;54.91;100458.13;5389623;26;33953;-81
2022/10/08 06:31:36;;;;;;;20.30;11.45;;;;;;;17.84;54.06;100462.34;5368590;26;33809;-77
2022/10/08 06:34:04;;;;;;;17.98;11.27;;;;;;;17.87;54.10;100463.31;5388848;26;34591;-83
2022/10/08 06:36:32;;;;;;;18.48;11.07;;;;;;;18.32;53.15;100458.28;5388171;26;33460;-82
2022/10/08 06:39:09;;;;;;;17.50;11.43;;;;;;;18.64;53.14;100464.31;5389563;26;34650;-85
2022/10/08 06:41:37;;;;;;;17.17;11.93;;;;;;;18.15;54.51;100464.00;5369106;26;33609;-83
2022/10/08 06:44:06;;;;;;;18.33;12.02;;;;;;;18.55;53.72;100469.34;5389373;26;34087;-83
2022/10/08 06:46:34;;;;;;;16.85;11.12;;;;;;;19.29;52.48;100477.06;5369523;26;34428;-81
2022/10/08 06:49:04;;;;;;;19.87;13.05;;;;;;;18.58;54.56;100472.91;5369509;26;34533;-85
2022/10/08 06:51:32;;;;;;;20.05;13.20;;;;;;;18.44;55.32;100476.94;5350985;26;33261;-83
2022/10/08 06:54:00;;;;;;;22.37;13.70;;;;;;;18.20;56.99;100475.50;5389326;26;33842;-84
2022/10/08 06:56:35;;;;;;;;;;;;;;;18.38;57.07;100482.03;5386655;26;33466;-84
2022/10/08 06:59:04;;;;;;;20.42;14.35;;;;;;;19.37;55.76;100480.75;5369004;26;33846;-82
2022/10/08 07:01:31;;;;;;;19.73;13.82;;;;;;;18.85;57.05;100480.56;5389711;26;33847;-79
2022/10/08 07:04:01;;;;;;;21.77;13.55;;;;;;;18.99;57.43;100486.09;5389442;26;33789;-83
2022/10/08 07:06:29;;;;;;;23.55;14.18;;;;;;;18.91;57.83;100485.06;5389853;26;33524;-79
2022/10/08 07:08:58;;;;;;;21.67;13.77;;;;;;;18.53;59.47;100476.28;5389422;26;34780;-82
2022/10/08 07:11:26;;;;;;;22.55;14.05;;;;;;;18.21;60.76;100474.63;5350405;26;33447;-88
2022/10/08 07:13:55;;;;;;;19.40;14.23;;;;;;;18.51;59.76;100476.25;5369866;26;33135;-86
2022/10/08 07:16:24;;;;;;;21.62;14.23;;;;;;;18.90;58.91;100470.13;5369835;26;33332;-84
2022/10/08 07:18:53;;;;;;;21.25;13.40;;;;;;;18.98;59.38;100471.19;5369381;26;34500;-85
2022/10/08 07:21:21;;;;;;;19.37;12.90;;;;;;;19.96;56.42;100471.34;5389147;26;33883;-84
2022/10/08 07:23:49;;;;;;;20.60;13.18;;;;;;;19.24;58.31;100478.75;5389098;26;34068;-86
2022/10/08 07:26:19;;;;;;;19.20;12.65;;;;;;;19.30;58.09;100476.22;5389228;26;33291;-84
2022/10/08 07:28:57;;;;;;;18.55;13.27;;;;;;;19.10;58.79;100474.94;5369438;26;34160;-84
2022/10/08 07:31:28;;;;;;;20.52;12.15;;;;;;;18.92;59.81;100478.94;5389078;26;33620;-82
2022/10/08 07:33:57;;;;;;;17.37;12.30;;;;;;;19.90;56.58;100471.25;5389135;26;33365;-81
2022/10/08 07:36:26;;;;;;;21.33;11.98;;;;;;;19.60;57.12;100462.78;5369197;26;34408;-81
2022/10/08 07:38:58;;;;;;;18.52;12.40;;;;;;;18.81;59.81;100477.81;5389456;26;34691;-87
2022/10/08 07:41:26;;;;;;;19.75;11.65;;;;;;;19.59;57.00;100476.78;5369525;26;33803;-86
2022/10/08 07:43:58;;;;;;;17.15;11.45;;;;;;;19.76;56.97;100469.25;5347892;26;32142;-86
2022/10/08 07:46:27;;;;;;;18.12;12.88;;;;;;;19.98;55.93;100464.37;5369923;26;34000;-86
2022/10/08 07:48:58;;;;;;;17.08;11.55;;;;;;;20.34;54.61;100458.84;5388005;26;33847;-84
2022/10/08 07:51:28;;;;;;;25.33;16.67;;;;;;;19.77;56.23;100460.50;5388930;26;34736;-87
2022/10/08 07:53:56;;;;;;;19.83;12.57;;;;;;;20.90;52.82;100465.81;5369286;26;34007;-87
2022/10/08 07:56:31;;;;;;;17.62;12.25;;;;;;;20.51;54.26;100461.69;5389728;26;33577;-85
2022/10/08 07:58:59;;;;;;;16.50;12.30;;;;;;;20.90;53.59;100454.37;5350234;26;33935;-87
2022/10/08 08:01:28;;;;;;;18.30;12.15;;;;;;;20.53;54.58;100460.00;5368008;26;34539;-85
2022/10/08 08:04:01;;;;;;;20.70;12.02;;;;;;;20.27;55.08;100466.59;5387947;26;33955;-87
2022/10/08 08:06:30;;;;;;;17.12;11.27;;;;;;;20.42;54.42;100461.59;5385376;26;33113;-85
2022/10/08 08:08:59;;;;;;;18.12;10.93;;;;;;;21.09;52.52;100458.13;5346388;26;31997;-86
2022/10/08 08:11:28;;;;;;;17.70;11.65;;;;;;;21.79;50.81;100458.94;5348478;26;34449;-85
2022/10/08 08:13:55;;;;;;;17.83;11.85;;;;;;;21.00;53.02;100462.44;5386463;26;33959;-87
2022/10/08 08:16:25;;;;;;;16.50;11.25;;;;;;;21.98;49.84;100459.09;5366404;26;32779;-80
2022/10/08 08:18:55;;;;;;;16.00;10.73;;;;;;;20.97;52.18;100457.09;5366528;26;33546;-83
2022/10/08 08:21:28;;;;;;;16.58;11.27;;;;;;;21.64;50.67;100456.16;5388884;26;34152;-85
2022/10/08 08:23:57;;;;;;;17.12;11.35;;;;;;;21.19;52.19;100449.50;5367972;26;33994;-85
2022/10/08 08:26:31;;;;;;;17.10;11.75;;;;;;;21.12;52.07;100455.53;5388348;26;33482;-85
2022/10/08 08:29:18;;;;;;;18.35;11.40;;;;;;;20.95;51.95;100458.84;5369284;26;34366;-82
2022/10/08 08:31:47;;;;;;;14.75;11.02;;;;;;;22.05;49.67;100457.41;5388920;26;34053;-83
2022/10/08 08:34:17;;;;;;;31.70;20.45;;;;;;;21.29;50.63;100454.00;5388177;26;33893;-84
2022/10/08 08:36:47;;;;;;;16.85;10.88;;;;;;;21.88;49.16;100451.97;5388511;26;32906;-85
2022/10/08 08:39:24;;;;;;;25.50;15.10;;;;;;;21.16;51.36;100457.34;5368576;26;33829;-83
2022/10/08 08:42:13;;;;;;;17.77;10.50;;;;;;;21.30;51.98;100455.75;5369317;26;32384;-81
2022/10/08 08:44:42;;;;;;;15.88;10.27;;;;;;;22.13;49.82;100455.72;5389456;26;33810;-81
2022/10/08 08:47:19;;;;;;;17.33;10.52;;;;;;;21.98;50.26;100453.81;5389205;26;33480;-82
2022/10/08 08:49:56;;;;;;;18.23;10.63;;;;;;;22.02;49.47;100447.72;5370285;26;34800;-81
2022/10/08 08:52:26;;;;;;;17.08;10.68;;;;;;;22.70;47.43;100453.50;5370018;26;34861;-82
2022/10/08 08:54:53;;;;;;;16.27;10.52;;;;;;;22.84;47.74;100446.53;5350661;26;33963;-83
2022/10/08 08:57:37;;;;;;;17.80;9.95;;;;;;;22.81;46.92;100446.50;5370077;26;34136;-82
2022/10/08 09:00:18;;;;;;;19.60;9.55;;;;;;;23.73;45.38;100446.81;5369788;26;33842;-82
2022/10/08 09:02:55;;;;;;;15.50;9.05;;;;;;;23.65;45.40;100438.00;5390398;26;33802;-82
2022/10/08 09:05:24;;;;;;;17.60;9.65;;;;;;;24.07;45.66;100446.91;5369319;26;34051;-81
2022/10/08 09:07:57;;;;;;;17.12;9.25;;;;;;;23.97;45.76;100434.56;5369888;26;33625;-82
2022/10/08 09:10:41;;;;;;;19.30;10.05;;;;;;;23.79;46.53;100434.53;5370327;26;33696;-82
2022/10/08 09:13:13;;;;;;;26.23;10.15;;;;;;;24.29;44.74;100444.22;5390216;26;34515;-82
2022/10/08 09:15:41;;;;;;;20.08;10.43;;;;;;;24.22;47.96;100445.09;5369674;26;34263;-83
2022/10/08 09:18:11;;;;;;;19.40;9.05;;;;;;;23.59;48.80;100445.94;5369539;26;33595;-82
2022/10/08 09:20:39;;;;;;;26.60;10.63;;;;;;;23.77;49.14;100446.84;5369458;26;33590;-82
2022/10/08 09:23:20;;;;;;;16.80;9.85;;;;;;;23.42;52.07;100445.03;5368838;26;33815;-83
2022/10/08 09:25:52;;;;;;;15.68;8.65;;;;;;;24.08;46.04;100446.00;5387846;26;34540;-82
2022/10/08 09:28:51;;;;;;;14.77;9.05;;;;;;;24.26;44.69;100441.56;5369575;26;33594;-84
2022/10/08 09:31:40;;;;;;;15.63;8.85;;;;;;;24.92;43.03;100445.00;5389041;26;34170;-85
2022/10/08 09:34:17;;;;;;;17.70;8.07;;;;;;;25.41;41.79;100437.72;5369143;26;34356;-83
2022/10/08 09:36:49;;;;;;;20.08;9.43;;;;;;;25.34;42.92;100442.16;5383194;26;33475;-81
2022/10/08 09:39:21;;;;;;;16.48;7.90;;;;;;;25.36;43.33;100432.44;5387197;26;33543;-83
2022/10/08 09:42:07;;;;;;;14.00;7.95;;;;;;;25.36;43.38;100439.50;5389769;26;34059;-84
2022/10/08 09:44:59;;;;;;;19.85;8.63;;;;;;;26.15;39.92;100438.06;5369500;26;34693;-83
2022/10/08 09:47:26;;;;;;;13.85;8.63;;;;;;;25.86;40.50;100433.87;5386523;26;33976;-82
2022/10/08 09:50:05;;;;;;;13.10;8.55;;;;;;;25.59;40.89;100421.69;5369772;26;32928;-85
2022/10/08 09:52:34;;;;;;;13.20;7.87;;;;;;;25.96;39.85;100425.84;5389797;26;33938;-86
2022/10/08 09:55:07;;;;;;;14.05;7.78;;;;;;;26.42;39.00;100420.97;5369516;26;33915;-80
2022/10/08 09:57:42;;;;;;;14.45;7.40;;;;;;;27.07;37.88;100415.81;5366205;26;35070;-82
2022/10/08 10:00:38;;;;;;;10.02;7.20;;;;;;;26.24;39.48;100422.06;5390054;26;34279;-81
2022/10/08 10:03:16;;;;;;;13.32;8.05;;;;;;;26.53;39.17;100412.03;5366964;26;34647;-81
2022/10/08 10:05:50;;;;;;;22.98;8.15;;;;;;;26.11;38.71;100411.56;5369262;26;33862;-81
2022/10/08 10:08:47;;;;;;;14.40;8.13;;;;;;;26.53;38.35;100406.72;5369606;26;34768;-81
2022/10/08 10:11:35;;;;;;;11.27;6.93;;;;;;;26.88;38.09;100409.87;5369552;26;33671;-82
2022/10/08 10:14:09;;;;;;;11.93;6.50;;;;;;;27.40;37.18;100403.00;5389628;26;33618;-81
2022/10/08 10:16:41;;;;;;;11.48;6.50;;;;;;;27.62;35.94;100395.56;5389673;26;34078;-82
2022/10/08 10:19:15;;;;;;;11.18;6.35;;;;;;;27.56;36.42;100392.13;5366522;26;34004;-82
2022/10/08 10:21:53;;;;;;;9.57;5.57;;;;;;;27.46;36.28;100386.06;5348759;26;31841;-81
2022/10/08 10:24:29;;;;;;;9.70;5.87;;;;;;;27.81;35.33;100382.81;5386395;26;34722;-82
2022/10/08 10:27:02;;;;;;;11.30;6.47;;;;;;;25.09;38.69;100383.06;5370114;26;34357;-82
2022/10/08 10:29:56;;;;;;;10.35;5.95;;;;;;;26.87;36.76;100386.00;5369574;26;33685;-82
2022/10/08 10:32:28;;;;;;;8.43;5.03;;;;;;;27.22;36.48;100371.31;5369373;26;31873;-82
2022/10/08 10:35:05;;;;;;;10.52;5.50;;;;;;;26.74;35.85;100371.97;5389653;26;34128;-82
2022/10/08 10:37:38;;;;;;;8.32;5.03;;;;;;;26.65;37.47;100369.41;5369926;26;33931;-83
2022/10/08 10:40:24;;;;;;;8.52;4.75;;;;;;;27.01;34.61;100361.88;5351296;26;34349;-83
2022/10/08 10:42:58;;;;;;;9.02;4.95;;;;;;;27.94;34.75;100362.22;5369290;26;33876;-83
2022/10/08 10:45:27;;;;;;;;;;;;;;;28.16;34.97;100353.84;5369745;26;33975;-82
2022/10/08 10:47:54;;;;;;;8.20;4.85;;;;;;;29.11;32.77;100349.25;5367160;26;34253;-83
2022/10/08 10:50:49;;;;;;;11.55;4.75;;;;;;;28.54;33.69;100349.59;5385119;26;33452;-82
2022/10/08 10:53:48;;;;;;;7.57;4.03;;;;;;;28.53;34.28;100347.81;5365414;26;34104;-82
2022/10/08 10:56:17;;;;;;;8.27;4.43;;;;;;;28.70;32.11;100343.00;5386656;26;34072;-83
2022/10/08 10:59:06;;;;;;;8.93;4.97;;;;;;;27.60;32.76;100338.84;5367671;26;33508;-82
2022/10/08 11:01:51;;;;;;;10.20;4.22;;;;;;;27.01;35.13;100340.59;5387640;26;33971;-82
2022/10/08 11:04:31;;;;;;;5.87;3.80;;;;;;;28.16;33.89;100324.53;5389294;26;33858;-82
2022/10/08 11:07:02;;;;;;;7.10;4.12;;;;;;;28.62;33.08;100321.00;5368831;26;33964;-82
2022/10/08 11:09:51;;;;;;;6.28;3.90;;;;;;;28.81;32.42;100322.34;5368662;26;33708;-82
2022/10/08 11:12:38;;;;;;;7.10;3.65;;;;;;;28.76;32.77;100313.59;5368941;26;33996;-83
2022/10/08 11:15:24;;;;;;;5.03;3.33;;;;;;;28.20;33.41;100324.47;5369552;26;33330;-82
2022/10/08 11:18:01;;;;;;;8.07;3.37;;;;;;;26.01;35.46;100324.06;5389674;26;34718;-82
2022/10/08 11:20:50;;;;;;;10.48;4.32;;;;;;;23.77;39.07;100319.88;5369063;26;34220;-83
2022/10/08 11:23:29;;;;;;;9.43;3.78;;;;;;;26.37;36.24;100316.59;5389074;26;33517;-82
2022/10/08 11:26:00;;;;;;;6.43;3.65;;;;;;;27.36;34.19;100310.84;5368286;26;33179;-82
2022/10/08 11:29:16;;;;;;;6.70;3.70;;;;;;;27.65;33.53;100313.00;5372184;26;34635;-82
2022/10/08 11:31:45;;;;;;;7.87;3.80;;;;;;;27.23;33.29;100309.25;5388836;26;33606;-82
2022/10/08 11:34:28;;;;;;;6.37;4.12;;;;;;;26.04;35.47;100310.75;5389694;26;33902;-82
2022/10/08 11:37:21;;;;;;;6.85;3.95;;;;;;;24.92;39.64;100301.87;5369589;26;33542;-82
2022/10/08 11:40:20;;;;;;;9.77;3.85;;;;;;;25.10;38.04;100302.66;5389298;26;34053;-82
2022/10/08 11:43:11;;;;;;;8.20;3.80;;;;;;;26.00;35.75;100305.47;5389887;26;33976;-82